Terminal Aerodrome Forecast
Issued by NWS

Home | Current Version | Previous Version | Text Only | Print | Product List | Glossary On
Versions: 1 2 3 4 5 6 7 8 9 10 11 12 13 14 15 16 17
923
FTUS45 KPIH 161724
TAFSUN
TAF
KSUN 161724Z 1618/1724 12005KT 1SM BR OVC003
     FM161900 14007KT 2SM BR FEW010 BKN070
     FM162100 15006KT P6SM SCT070
     FM170300 31006KT P6SM FEW050
     FM171900 13006KT P6SM SCT080=

USA.gov is the U.S. government's official web portal to all federal, state and local government web resources and services.